sensor_id;sensor_type;location;lat;lon;timestamp;P1;durP1;ratioP1;P2;durP2;ratioP2
16272;SDS011;8244;50.044;9.006;2023-04-20T00:03:40;6.97;;;3.67;;
16272;SDS011;8244;50.044;9.006;2023-04-20T00:08:43;7.80;;;3.80;;
16272;SDS011;8244;50.044;9.006;2023-04-20T00:13:45;8.33;;;4.33;;
16272;SDS011;8244;50.044;9.006;2023-04-20T00:18:47;9.23;;;3.90;;
16272;SDS011;8244;50.044;9.006;2023-04-20T00:23:50;8.07;;;4.13;;
16272;SDS011;8244;50.044;9.006;2023-04-20T00:28:52;7.87;;;4.10;;
16272;SDS011;8244;50.044;9.006;2023-04-20T00:33:54;8.33;;;4.00;;
16272;SDS011;8244;50.044;9.006;2023-04-20T00:38:57;9.10;;;4.13;;
16272;SDS011;8244;50.044;9.006;2023-04-20T00:43:59;8.93;;;4.10;;
16272;SDS011;8244;50.044;9.006;2023-04-20T00:49:00;7.70;;;4.20;;
16272;SDS011;8244;50.044;9.006;2023-04-20T00:54:04;8.23;;;4.10;;
16272;SDS011;8244;50.044;9.006;2023-04-20T00:59:06;7.57;;;4.03;;
16272;SDS011;8244;50.044;9.006;2023-04-20T01:04:07;7.03;;;4.03;;
16272;SDS011;8244;50.044;9.006;2023-04-20T01:09:11;8.37;;;3.60;;
16272;SDS011;8244;50.044;9.006;2023-04-20T01:14:12;9.17;;;4.17;;
16272;SDS011;8244;50.044;9.006;2023-04-20T01:19:14;10.93;;;4.50;;
16272;SDS011;8244;50.044;9.006;2023-04-20T01:24:17;7.53;;;4.50;;
16272;SDS011;8244;50.044;9.006;2023-04-20T01:29:18;12.27;;;4.57;;
16272;SDS011;8244;50.044;9.006;2023-04-20T01:34:20;9.57;;;4.47;;
16272;SDS011;8244;50.044;9.006;2023-04-20T01:39:23;8.40;;;4.13;;
16272;SDS011;8244;50.044;9.006;2023-04-20T01:44:25;14.13;;;4.10;;
16272;SDS011;8244;50.044;9.006;2023-04-20T01:49:27;8.03;;;4.07;;
16272;SDS011;8244;50.044;9.006;2023-04-20T01:54:30;7.17;;;4.10;;
16272;SDS011;8244;50.044;9.006;2023-04-20T01:59:32;7.97;;;4.20;;
16272;SDS011;8244;50.044;9.006;2023-04-20T02:04:33;7.93;;;3.97;;
16272;SDS011;8244;50.044;9.006;2023-04-20T02:09:37;10.73;;;4.20;;
16272;SDS011;8244;50.044;9.006;2023-04-20T02:14:38;6.63;;;3.60;;
16272;SDS011;8244;50.044;9.006;2023-04-20T02:19:40;9.57;;;4.30;;
16272;SDS011;8244;50.044;9.006;2023-04-20T02:24:43;10.57;;;4.00;;
16272;SDS011;8244;50.044;9.006;2023-04-20T02:29:44;7.20;;;4.20;;
16272;SDS011;8244;50.044;9.006;2023-04-20T02:34:46;8.37;;;4.47;;
16272;SDS011;8244;50.044;9.006;2023-04-20T02:39:49;8.83;;;4.23;;
16272;SDS011;8244;50.044;9.006;2023-04-20T02:44:51;12.63;;;4.27;;
16272;SDS011;8244;50.044;9.006;2023-04-20T02:49:52;8.97;;;4.90;;
16272;SDS011;8244;50.044;9.006;2023-04-20T02:54:55;10.13;;;4.27;;
16272;SDS011;8244;50.044;9.006;2023-04-20T02:59:57;10.30;;;4.40;;
16272;SDS011;8244;50.044;9.006;2023-04-20T03:04:59;9.87;;;4.50;;
16272;SDS011;8244;50.044;9.006;2023-04-20T03:10:02;10.60;;;5.57;;
16272;SDS011;8244;50.044;9.006;2023-04-20T03:15:05;9.57;;;4.80;;
16272;SDS011;8244;50.044;9.006;2023-04-20T03:20:08;7.83;;;4.70;;
16272;SDS011;8244;50.044;9.006;2023-04-20T03:25:11;9.27;;;4.60;;
16272;SDS011;8244;50.044;9.006;2023-04-20T03:30:13;8.90;;;5.00;;
16272;SDS011;8244;50.044;9.006;2023-04-20T03:35:15;9.37;;;4.97;;
16272;SDS011;8244;50.044;9.006;2023-04-20T03:40:18;8.97;;;4.70;;
16272;SDS011;8244;50.044;9.006;2023-04-20T03:45:20;7.83;;;4.53;;
16272;SDS011;8244;50.044;9.006;2023-04-20T03:50:22;9.93;;;4.60;;
16272;SDS011;8244;50.044;9.006;2023-04-20T03:55:25;11.97;;;4.73;;
16272;SDS011;8244;50.044;9.006;2023-04-20T04:00:26;11.73;;;5.53;;
16272;SDS011;8244;50.044;9.006;2023-04-20T04:05:28;10.53;;;5.33;;
16272;SDS011;8244;50.044;9.006;2023-04-20T04:10:31;9.70;;;5.20;;
16272;SDS011;8244;50.044;9.006;2023-04-20T04:15:33;11.03;;;5.83;;
16272;SDS011;8244;50.044;9.006;2023-04-20T04:20:35;11.50;;;5.60;;
16272;SDS011;8244;50.044;9.006;2023-04-20T04:25:38;9.77;;;5.50;;
16272;SDS011;8244;50.044;9.006;2023-04-20T04:30:40;11.23;;;5.63;;
16272;SDS011;8244;50.044;9.006;2023-04-20T04:35:42;9.10;;;5.90;;
16272;SDS011;8244;50.044;9.006;2023-04-20T04:40:45;10.10;;;6.00;;
16272;SDS011;8244;50.044;9.006;2023-04-20T04:45:47;8.20;;;5.63;;
16272;SDS011;8244;50.044;9.006;2023-04-20T04:50:49;11.03;;;5.67;;
16272;SDS011;8244;50.044;9.006;2023-04-20T04:55:52;9.93;;;5.70;;
16272;SDS011;8244;50.044;9.006;2023-04-20T05:00:53;11.07;;;5.47;;
16272;SDS011;8244;50.044;9.006;2023-04-20T05:05:55;11.63;;;5.60;;
16272;SDS011;8244;50.044;9.006;2023-04-20T05:10:58;10.03;;;6.10;;
16272;SDS011;8244;50.044;9.006;2023-04-20T05:16:00;12.97;;;5.80;;
16272;SDS011;8244;50.044;9.006;2023-04-20T05:21:01;8.83;;;5.30;;
16272;SDS011;8244;50.044;9.006;2023-04-20T05:26:05;9.83;;;5.17;;
16272;SDS011;8244;50.044;9.006;2023-04-20T05:31:06;8.57;;;5.30;;
16272;SDS011;8244;50.044;9.006;2023-04-20T05:36:08;10.97;;;6.00;;
16272;SDS011;8244;50.044;9.006;2023-04-20T05:41:11;9.67;;;5.30;;
16272;SDS011;8244;50.044;9.006;2023-04-20T05:46:13;9.90;;;5.17;;
16272;SDS011;8244;50.044;9.006;2023-04-20T05:51:14;11.82;;;5.57;;
16272;SDS011;8244;50.044;9.006;2023-04-20T05:56:18;13.03;;;5.80;;
16272;SDS011;8244;50.044;9.006;2023-04-20T06:01:19;10.43;;;5.40;;
16272;SDS011;8244;50.044;9.006;2023-04-20T06:06:21;10.75;;;5.95;;
16272;SDS011;8244;50.044;9.006;2023-04-20T06:11:24;8.63;;;5.67;;
16272;SDS011;8244;50.044;9.006;2023-04-20T06:16:26;10.43;;;5.70;;
16272;SDS011;8244;50.044;9.006;2023-04-20T06:21:27;10.00;;;5.68;;
16272;SDS011;8244;50.044;9.006;2023-04-20T06:26:31;9.52;;;5.75;;
16272;SDS011;8244;50.044;9.006;2023-04-20T06:31:33;10.48;;;6.20;;
16272;SDS011;8244;50.044;9.006;2023-04-20T06:36:34;9.93;;;5.60;;
16272;SDS011;8244;50.044;9.006;2023-04-20T06:41:37;11.50;;;5.57;;
16272;SDS011;8244;50.044;9.006;2023-04-20T06:46:39;9.70;;;5.85;;
16272;SDS011;8244;50.044;9.006;2023-04-20T06:51:41;11.75;;;5.53;;
16272;SDS011;8244;50.044;9.006;2023-04-20T06:56:44;10.52;;;5.32;;
16272;SDS011;8244;50.044;9.006;2023-04-20T07:01:45;9.50;;;5.07;;
16272;SDS011;8244;50.044;9.006;2023-04-20T07:06:47;9.20;;;4.85;;
16272;SDS011;8244;50.044;9.006;2023-04-20T07:11:51;9.23;;;5.05;;
16272;SDS011;8244;50.044;9.006;2023-04-20T07:16:55;9.30;;;5.07;;
16272;SDS011;8244;50.044;9.006;2023-04-20T07:21:56;9.80;;;5.20;;
16272;SDS011;8244;50.044;9.006;2023-04-20T07:26:59;9.75;;;4.70;;
16272;SDS011;8244;50.044;9.006;2023-04-20T07:32:01;7.10;;;4.60;;
16272;SDS011;8244;50.044;9.006;2023-04-20T07:37:03;9.43;;;4.93;;
16272;SDS011;8244;50.044;9.006;2023-04-20T07:42:06;8.60;;;4.40;;
16272;SDS011;8244;50.044;9.006;2023-04-20T07:47:08;10.70;;;4.97;;
16272;SDS011;8244;50.044;9.006;2023-04-20T07:52:09;6.82;;;4.40;;
16272;SDS011;8244;50.044;9.006;2023-04-20T07:57:13;6.72;;;4.32;;
16272;SDS011;8244;50.044;9.006;2023-04-20T08:02:15;8.07;;;4.43;;
16272;SDS011;8244;50.044;9.006;2023-04-20T08:07:17;6.45;;;4.05;;
16272;SDS011;8244;50.044;9.006;2023-04-20T08:12:21;7.60;;;4.30;;
16272;SDS011;8244;50.044;9.006;2023-04-20T08:17:22;6.97;;;4.47;;
16272;SDS011;8244;50.044;9.006;2023-04-20T08:22:24;8.48;;;3.80;;
16272;SDS011;8244;50.044;9.006;2023-04-20T08:27:30;6.15;;;4.32;;
16272;SDS011;8244;50.044;9.006;2023-04-20T08:32:32;9.70;;;4.72;;
16272;SDS011;8244;50.044;9.006;2023-04-20T08:37:33;7.47;;;4.03;;
16272;SDS011;8244;50.044;9.006;2023-04-20T08:42:37;6.45;;;3.95;;
16272;SDS011;8244;50.044;9.006;2023-04-20T08:47:40;7.30;;;4.13;;
16272;SDS011;8244;50.044;9.006;2023-04-20T08:52:42;6.95;;;4.32;;
16272;SDS011;8244;50.044;9.006;2023-04-20T08:57:46;7.70;;;4.38;;
16272;SDS011;8244;50.044;9.006;2023-04-20T09:02:48;7.72;;;4.28;;
16272;SDS011;8244;50.044;9.006;2023-04-20T09:07:51;7.68;;;3.95;;
16272;SDS011;8244;50.044;9.006;2023-04-20T09:12:55;8.13;;;3.95;;
16272;SDS011;8244;50.044;9.006;2023-04-20T09:17:57;8.40;;;4.05;;
16272;SDS011;8244;50.044;9.006;2023-04-20T09:23:09;6.00;;;3.75;;
16272;SDS011;8244;50.044;9.006;2023-04-20T09:28:13;5.53;;;3.53;;
16272;SDS011;8244;50.044;9.006;2023-04-20T09:33:16;6.82;;;3.78;;
16272;SDS011;8244;50.044;9.006;2023-04-20T09:38:23;4.60;;;3.20;;
16272;SDS011;8244;50.044;9.006;2023-04-20T09:43:27;5.55;;;3.55;;
16272;SDS011;8244;50.044;9.006;2023-04-20T09:48:32;10.15;;;3.53;;
16272;SDS011;8244;50.044;9.006;2023-04-20T09:53:35;6.05;;;3.45;;
16272;SDS011;8244;50.044;9.006;2023-04-20T09:58:38;5.93;;;3.85;;
16272;SDS011;8244;50.044;9.006;2023-04-20T10:03:41;4.75;;;3.38;;
16272;SDS011;8244;50.044;9.006;2023-04-20T10:08:43;6.10;;;3.50;;
16272;SDS011;8244;50.044;9.006;2023-04-20T10:13:46;7.15;;;3.50;;
16272;SDS011;8244;50.044;9.006;2023-04-20T10:18:57;6.68;;;3.50;;
16272;SDS011;8244;50.044;9.006;2023-04-20T10:24:00;5.35;;;3.83;;
16272;SDS011;8244;50.044;9.006;2023-04-20T10:29:04;5.68;;;3.00;;
16272;SDS011;8244;50.044;9.006;2023-04-20T10:34:07;5.93;;;3.33;;
16272;SDS011;8244;50.044;9.006;2023-04-20T10:39:12;4.60;;;3.30;;
16272;SDS011;8244;50.044;9.006;2023-04-20T10:44:17;9.63;;;4.78;;
16272;SDS011;8244;50.044;9.006;2023-04-20T10:49:19;9.15;;;3.63;;
16272;SDS011;8244;50.044;9.006;2023-04-20T10:54:34;6.68;;;3.17;;
16272;SDS011;8244;50.044;9.006;2023-04-20T10:59:38;5.43;;;3.40;;
16272;SDS011;8244;50.044;9.006;2023-04-20T11:04:43;4.55;;;3.10;;
16272;SDS011;8244;50.044;9.006;2023-04-20T11:09:51;6.95;;;3.33;;
16272;SDS011;8244;50.044;9.006;2023-04-20T11:14:55;4.88;;;3.33;;
16272;SDS011;8244;50.044;9.006;2023-04-20T11:20:03;4.82;;;3.28;;
16272;SDS011;8244;50.044;9.006;2023-04-20T11:25:10;5.72;;;3.25;;
16272;SDS011;8244;50.044;9.006;2023-04-20T11:30:14;7.03;;;3.65;;
16272;SDS011;8244;50.044;9.006;2023-04-20T11:35:16;4.95;;;3.30;;
16272;SDS011;8244;50.044;9.006;2023-04-20T11:40:18;4.88;;;3.58;;
16272;SDS011;8244;50.044;9.006;2023-04-20T11:45:21;6.35;;;3.22;;
16272;SDS011;8244;50.044;9.006;2023-04-20T11:50:23;8.07;;;3.35;;
16272;SDS011;8244;50.044;9.006;2023-04-20T11:55:25;5.90;;;3.45;;
16272;SDS011;8244;50.044;9.006;2023-04-20T12:00:28;3.78;;;3.00;;
16272;SDS011;8244;50.044;9.006;2023-04-20T12:05:30;5.32;;;3.47;;
16272;SDS011;8244;50.044;9.006;2023-04-20T12:10:31;4.68;;;3.20;;
16272;SDS011;8244;50.044;9.006;2023-04-20T12:15:35;8.13;;;3.38;;
16272;SDS011;8244;50.044;9.006;2023-04-20T12:20:36;5.82;;;3.42;;
16272;SDS011;8244;50.044;9.006;2023-04-20T12:25:38;5.25;;;3.03;;
16272;SDS011;8244;50.044;9.006;2023-04-20T12:30:41;4.72;;;3.00;;
16272;SDS011;8244;50.044;9.006;2023-04-20T12:35:43;4.45;;;3.10;;
16272;SDS011;8244;50.044;9.006;2023-04-20T12:40:45;4.22;;;3.28;;
16272;SDS011;8244;50.044;9.006;2023-04-20T12:45:48;4.40;;;2.90;;
16272;SDS011;8244;50.044;9.006;2023-04-20T12:50:50;4.07;;;3.08;;
16272;SDS011;8244;50.044;9.006;2023-04-20T12:55:51;4.45;;;2.88;;
16272;SDS011;8244;50.044;9.006;2023-04-20T13:00:54;8.60;;;3.25;;
16272;SDS011;8244;50.044;9.006;2023-04-20T13:05:56;5.10;;;3.70;;
16272;SDS011;8244;50.044;9.006;2023-04-20T13:10:59;4.45;;;3.10;;
16272;SDS011;8244;50.044;9.006;2023-04-20T13:16:02;6.65;;;3.10;;
16272;SDS011;8244;50.044;9.006;2023-04-20T13:21:04;4.45;;;2.95;;
16272;SDS011;8244;50.044;9.006;2023-04-20T13:26:07;5.53;;;3.00;;
16272;SDS011;8244;50.044;9.006;2023-04-20T13:31:10;6.55;;;3.25;;
16272;SDS011;8244;50.044;9.006;2023-04-20T13:36:12;3.72;;;2.88;;
16272;SDS011;8244;50.044;9.006;2023-04-20T13:41:13;5.13;;;3.13;;
16272;SDS011;8244;50.044;9.006;2023-04-20T13:46:17;3.85;;;2.70;;
16272;SDS011;8244;50.044;9.006;2023-04-20T13:51:19;3.75;;;2.70;;
16272;SDS011;8244;50.044;9.006;2023-04-20T13:56:21;3.65;;;2.80;;
16272;SDS011;8244;50.044;9.006;2023-04-20T14:01:24;4.45;;;2.85;;
16272;SDS011;8244;50.044;9.006;2023-04-20T14:06:26;6.47;;;3.17;;
16272;SDS011;8244;50.044;9.006;2023-04-20T14:11:28;4.80;;;2.88;;
16272;SDS011;8244;50.044;9.006;2023-04-20T14:16:31;4.18;;;2.65;;
16272;SDS011;8244;50.044;9.006;2023-04-20T14:21:34;4.22;;;2.50;;
16272;SDS011;8244;50.044;9.006;2023-04-20T14:26:36;4.28;;;2.47;;
16272;SDS011;8244;50.044;9.006;2023-04-20T14:31:39;4.78;;;2.90;;
16272;SDS011;8244;50.044;9.006;2023-04-20T14:36:41;6.05;;;3.50;;
16272;SDS011;8244;50.044;9.006;2023-04-20T14:41:43;6.35;;;3.75;;
16272;SDS011;8244;50.044;9.006;2023-04-20T14:46:46;7.07;;;4.10;;
16272;SDS011;8244;50.044;9.006;2023-04-20T14:51:48;6.05;;;4.30;;
16272;SDS011;8244;50.044;9.006;2023-04-20T14:56:50;7.60;;;4.10;;
16272;SDS011;8244;50.044;9.006;2023-04-20T15:01:53;7.22;;;4.18;;
16272;SDS011;8244;50.044;9.006;2023-04-20T15:06:55;7.05;;;3.80;;
16272;SDS011;8244;50.044;9.006;2023-04-20T15:11:56;5.40;;;3.83;;
16272;SDS011;8244;50.044;9.006;2023-04-20T15:16:59;6.88;;;4.15;;
16272;SDS011;8244;50.044;9.006;2023-04-20T15:22:01;7.43;;;3.95;;
16272;SDS011;8244;50.044;9.006;2023-04-20T15:27:03;7.18;;;4.00;;
16272;SDS011;8244;50.044;9.006;2023-04-20T15:32:06;6.10;;;4.03;;
16272;SDS011;8244;50.044;9.006;2023-04-20T15:37:08;6.63;;;4.13;;
16272;SDS011;8244;50.044;9.006;2023-04-20T15:42:09;6.32;;;4.32;;
16272;SDS011;8244;50.044;9.006;2023-04-20T15:47:12;5.57;;;4.13;;
16272;SDS011;8244;50.044;9.006;2023-04-20T15:52:14;6.47;;;4.20;;
16272;SDS011;8244;50.044;9.006;2023-04-20T15:57:15;8.55;;;4.50;;
16272;SDS011;8244;50.044;9.006;2023-04-20T16:02:19;6.13;;;4.00;;
16272;SDS011;8244;50.044;9.006;2023-04-20T16:07:20;6.68;;;4.50;;
16272;SDS011;8244;50.044;9.006;2023-04-20T16:12:22;7.88;;;4.97;;
16272;SDS011;8244;50.044;9.006;2023-04-20T16:17:25;8.45;;;5.05;;
16272;SDS011;8244;50.044;9.006;2023-04-20T16:22:27;7.32;;;5.20;;
16272;SDS011;8244;50.044;9.006;2023-04-20T16:27:28;7.78;;;4.90;;
16272;SDS011;8244;50.044;9.006;2023-04-20T16:32:31;6.97;;;4.60;;
16272;SDS011;8244;50.044;9.006;2023-04-20T16:37:33;7.88;;;4.80;;
16272;SDS011;8244;50.044;9.006;2023-04-20T16:42:35;8.05;;;5.03;;
16272;SDS011;8244;50.044;9.006;2023-04-20T16:47:38;9.43;;;5.03;;
16272;SDS011;8244;50.044;9.006;2023-04-20T16:52:40;6.68;;;4.82;;
16272;SDS011;8244;50.044;9.006;2023-04-20T16:57:41;7.65;;;5.03;;
16272;SDS011;8244;50.044;9.006;2023-04-20T17:02:44;8.40;;;4.80;;
16272;SDS011;8244;50.044;9.006;2023-04-20T17:07:46;8.50;;;4.93;;
16272;SDS011;8244;50.044;9.006;2023-04-20T17:12:48;7.80;;;5.32;;
16272;SDS011;8244;50.044;9.006;2023-04-20T17:17:51;8.73;;;6.07;;
16272;SDS011;8244;50.044;9.006;2023-04-20T17:22:52;8.55;;;6.20;;
16272;SDS011;8244;50.044;9.006;2023-04-20T17:27:54;10.65;;;6.28;;
16272;SDS011;8244;50.044;9.006;2023-04-20T17:32:57;10.02;;;6.70;;
16272;SDS011;8244;50.044;9.006;2023-04-20T17:37:59;11.43;;;7.07;;
16272;SDS011;8244;50.044;9.006;2023-04-20T17:43:01;11.65;;;7.68;;
16272;SDS011;8244;50.044;9.006;2023-04-20T17:48:05;13.45;;;7.88;;
16272;SDS011;8244;50.044;9.006;2023-04-20T17:53:07;12.27;;;8.48;;
16272;SDS011;8244;50.044;9.006;2023-04-20T17:58:09;12.48;;;8.48;;
16272;SDS011;8244;50.044;9.006;2023-04-20T18:03:13;11.07;;;7.57;;
16272;SDS011;8244;50.044;9.006;2023-04-20T18:08:15;12.02;;;8.30;;
16272;SDS011;8244;50.044;9.006;2023-04-20T18:13:17;13.18;;;9.07;;
16272;SDS011;8244;50.044;9.006;2023-04-20T18:18:20;16.63;;;9.77;;
16272;SDS011;8244;50.044;9.006;2023-04-20T18:23:22;12.48;;;8.30;;
16272;SDS011;8244;50.044;9.006;2023-04-20T18:28:23;14.27;;;10.02;;
16272;SDS011;8244;50.044;9.006;2023-04-20T18:33:27;13.80;;;9.52;;
16272;SDS011;8244;50.044;9.006;2023-04-20T18:38:28;13.57;;;10.45;;
16272;SDS011;8244;50.044;9.006;2023-04-20T18:43:30;16.10;;;11.32;;
16272;SDS011;8244;50.044;9.006;2023-04-20T18:48:33;15.10;;;11.10;;
16272;SDS011;8244;50.044;9.006;2023-04-20T18:53:35;15.20;;;9.80;;
16272;SDS011;8244;50.044;9.006;2023-04-20T18:58:37;16.85;;;11.50;;
16272;SDS011;8244;50.044;9.006;2023-04-20T19:03:40;14.63;;;10.68;;
16272;SDS011;8244;50.044;9.006;2023-04-20T19:08:42;15.93;;;11.98;;
16272;SDS011;8244;50.044;9.006;2023-04-20T19:13:43;15.35;;;10.48;;
16272;SDS011;8244;50.044;9.006;2023-04-20T19:18:46;16.73;;;11.82;;
16272;SDS011;8244;50.044;9.006;2023-04-20T19:23:49;16.75;;;12.27;;
16272;SDS011;8244;50.044;9.006;2023-04-20T19:28:51;17.70;;;13.50;;
16272;SDS011;8244;50.044;9.006;2023-04-20T19:33:54;20.25;;;13.98;;
16272;SDS011;8244;50.044;9.006;2023-04-20T19:38:56;19.38;;;15.13;;
16272;SDS011;8244;50.044;9.006;2023-04-20T19:43:58;20.85;;;16.38;;
16272;SDS011;8244;50.044;9.006;2023-04-20T19:49:04;21.05;;;16.48;;
16272;SDS011;8244;50.044;9.006;2023-04-20T19:54:06;18.35;;;13.93;;
16272;SDS011;8244;50.044;9.006;2023-04-20T19:59:08;19.65;;;13.27;;
16272;SDS011;8244;50.044;9.006;2023-04-20T20:04:11;22.25;;;16.65;;
16272;SDS011;8244;50.044;9.006;2023-04-20T20:09:13;18.10;;;13.82;;
16272;SDS011;8244;50.044;9.006;2023-04-20T20:14:14;22.40;;;16.48;;
16272;SDS011;8244;50.044;9.006;2023-04-20T20:19:18;23.20;;;17.38;;
16272;SDS011;8244;50.044;9.006;2023-04-20T20:24:20;17.27;;;14.20;;
16272;SDS011;8244;50.044;9.006;2023-04-20T20:29:24;24.00;;;17.02;;
16272;SDS011;8244;50.044;9.006;2023-04-20T20:34:27;22.10;;;16.52;;
16272;SDS011;8244;50.044;9.006;2023-04-20T20:39:29;22.67;;;18.13;;
16272;SDS011;8244;50.044;9.006;2023-04-20T20:44:31;25.33;;;18.58;;
16272;SDS011;8244;50.044;9.006;2023-04-20T20:49:34;26.40;;;19.10;;
16272;SDS011;8244;50.044;9.006;2023-04-20T20:54:36;25.95;;;17.65;;
16272;SDS011;8244;50.044;9.006;2023-04-20T20:59:37;22.52;;;17.15;;
16272;SDS011;8244;50.044;9.006;2023-04-20T21:04:40;25.05;;;18.70;;
16272;SDS011;8244;50.044;9.006;2023-04-20T21:09:42;24.27;;;19.55;;
16272;SDS011;8244;50.044;9.006;2023-04-20T21:14:44;25.13;;;18.63;;
16272;SDS011;8244;50.044;9.006;2023-04-20T21:19:47;25.30;;;19.60;;
16272;SDS011;8244;50.044;9.006;2023-04-20T21:24:49;25.05;;;19.63;;
16272;SDS011;8244;50.044;9.006;2023-04-20T21:29:51;27.98;;;20.98;;
16272;SDS011;8244;50.044;9.006;2023-04-20T21:34:54;24.15;;;18.15;;
16272;SDS011;8244;50.044;9.006;2023-04-20T21:39:55;24.00;;;17.70;;
16272;SDS011;8244;50.044;9.006;2023-04-20T21:44:57;25.27;;;20.65;;
16272;SDS011;8244;50.044;9.006;2023-04-20T21:50:00;26.35;;;19.65;;
16272;SDS011;8244;50.044;9.006;2023-04-20T21:55:02;27.77;;;22.13;;
16272;SDS011;8244;50.044;9.006;2023-04-20T22:00:04;26.13;;;21.75;;
16272;SDS011;8244;50.044;9.006;2023-04-20T22:05:09;25.67;;;21.45;;
16272;SDS011;8244;50.044;9.006;2023-04-20T22:10:11;27.23;;;21.98;;
16272;SDS011;8244;50.044;9.006;2023-04-20T22:15:13;27.13;;;21.90;;
16272;SDS011;8244;50.044;9.006;2023-04-20T22:20:16;27.23;;;21.15;;
16272;SDS011;8244;50.044;9.006;2023-04-20T22:25:18;29.80;;;22.25;;
16272;SDS011;8244;50.044;9.006;2023-04-20T22:30:20;32.75;;;23.38;;
16272;SDS011;8244;50.044;9.006;2023-04-20T22:35:23;26.33;;;20.67;;
16272;SDS011;8244;50.044;9.006;2023-04-20T22:40:25;27.80;;;20.60;;
16272;SDS011;8244;50.044;9.006;2023-04-20T22:45:27;24.65;;;18.50;;
16272;SDS011;8244;50.044;9.006;2023-04-20T22:50:30;26.27;;;21.00;;
16272;SDS011;8244;50.044;9.006;2023-04-20T22:55:33;28.00;;;21.88;;
16272;SDS011;8244;50.044;9.006;2023-04-20T23:00:35;31.02;;;23.67;;
16272;SDS011;8244;50.044;9.006;2023-04-20T23:05:38;29.45;;;22.08;;
16272;SDS011;8244;50.044;9.006;2023-04-20T23:10:43;28.10;;;22.35;;
16272;SDS011;8244;50.044;9.006;2023-04-20T23:15:46;32.70;;;25.27;;
16272;SDS011;8244;50.044;9.006;2023-04-20T23:20:49;26.00;;;21.25;;
16272;SDS011;8244;50.044;9.006;2023-04-20T23:25:52;24.20;;;18.73;;
16272;SDS011;8244;50.044;9.006;2023-04-20T23:30:54;25.92;;;20.38;;
16272;SDS011;8244;50.044;9.006;2023-04-20T23:35:57;27.17;;;20.95;;
16272;SDS011;8244;50.044;9.006;2023-04-20T23:40:59;27.00;;;21.00;;
16272;SDS011;8244;50.044;9.006;2023-04-20T23:46:01;31.95;;;25.45;;
16272;SDS011;8244;50.044;9.006;2023-04-20T23:51:05;30.23;;;24.65;;
16272;SDS011;8244;50.044;9.006;2023-04-20T23:56:06;29.08;;;22.88;;
